»·PEaware :: WAT169 KSNA-KLAS

WAT169 :: KSNA-KLAS

FLIGHT INFORMATION

Flight Status: Arrived
Operator:
Walker Air Transport
More flights by this operator :: More flights under this callsign
Pilot: Marty P. (27464)
Aircraft: BEECH AIRCRAFT SUPER KING AIR 350
(B350)
More flights by this aircraft type
Origin: KSNA John Wayne-Orange Co
United States
Destination: KLAS McCarran Intl
United States
More flights between these airports :: More routes between these airports
Route: IRV5 DAG CRESO4
File this flight plan on PilotEdge
Remarks:
Altitude:
(Current/Filed)
27,000ft
Speed:
(Current/Filed)
300kts
Departed: 21-Feb-21 01:46 PM
Arrived: 21-Feb-21 02:45 PM
Distance/Time
Traveled:
196nm/0:59
Distance/Time
To Go:
Arrived

Flight Plot

Page will automatically refresh every two minutes.

Flight plan parsing failed; only flown route is shown


Map Options




Map Legend


Flown Route
Filed Route
Departure Airport
Arrival Airport
Navaid (VOR, NDB)
Fix

Horizontal Profiles

Position Reports

Time Latitude Longitude Heading Altitude Ground
Speed
21-Feb-21 13:20 33.672066 -117.867110 13 61ft 0kts
21-Feb-21 13:21 33.672066 -117.867110 13 61ft 0kts
21-Feb-21 13:22 33.672066 -117.867110 13 61ft 0kts
21-Feb-21 13:23 33.672066 -117.867110 13 61ft 0kts
21-Feb-21 13:24 33.672066 -117.867110 13 61ft 0kts
21-Feb-21 13:25 33.672066 -117.867110 13 61ft 0kts
21-Feb-21 13:26 33.672066 -117.867110 13 61ft 0kts
21-Feb-21 13:27 33.672066 -117.867110 13 61ft 0kts
21-Feb-21 13:28 33.672066 -117.867110 13 61ft 0kts
21-Feb-21 13:29 33.672421 -117.867679 286 61ft 9kts
21-Feb-21 13:30 33.670356 -117.869653 221 61ft 0kts
21-Feb-21 13:31 33.668494 -117.871568 221 61ft 1kts
21-Feb-21 13:32 33.668488 -117.871574 221 61ft 0kts
21-Feb-21 13:33 33.668488 -117.871574 221 61ft 0kts
21-Feb-21 13:34 33.667922 -117.872165 219 61ft 4kts
21-Feb-21 13:35 33.667681 -117.872419 225 61ft 0kts
21-Feb-21 13:36 33.667681 -117.872419 225 61ft 0kts
21-Feb-21 13:37 33.667641 -117.872468 228 61ft 0kts
21-Feb-21 13:38 33.667641 -117.872468 228 61ft 0kts
21-Feb-21 13:39 33.667641 -117.872468 228 61ft 0kts
21-Feb-21 13:40 33.667641 -117.872468 228 61ft 0kts
21-Feb-21 13:41 33.667641 -117.872468 228 61ft 0kts
21-Feb-21 13:42 33.667609 -117.872517 232 61ft 3kts
21-Feb-21 13:43 33.667557 -117.872981 288 61ft 0kts
21-Feb-21 13:44 33.667557 -117.872981 288 61ft 0kts
21-Feb-21 13:45 33.681444 -117.865368 27 277ft 126kts
21-Feb-21 13:46 33.715700 -117.845240 27 2224ft 149kts
21-Feb-21 13:47 33.757629 -117.819378 28 4053ft 174kts
21-Feb-21 13:48 33.773814 -117.777312 140 5939ft 182kts
21-Feb-21 13:49 33.735844 -117.806678 241 7720ft 194kts
21-Feb-21 13:50 33.707437 -117.870516 241 8006ft 231kts
21-Feb-21 13:51 33.679196 -117.933755 241 10051ft 190kts
21-Feb-21 13:52 33.651894 -117.990429 241 11908ft 194kts
21-Feb-21 13:53 33.659192 -118.037091 352 13672ft 182kts
21-Feb-21 13:54 33.708873 -118.044146 352 15469ft 180kts
21-Feb-21 13:55 33.758395 -118.051236 353 17031ft 191kts
21-Feb-21 13:56 33.810848 -118.029602 33 18613ft 181kts
21-Feb-21 13:57 33.850594 -117.993964 34 20865ft 178kts
21-Feb-21 13:58 33.889750 -117.958632 36 23213ft 174kts
21-Feb-21 13:59 33.936039 -117.916462 36 23353ft 240kts
21-Feb-21 14:00 33.979000 -117.877592 34 26454ft 166kts
21-Feb-21 14:01 34.018694 -117.841686 34 27375ft 206kts
21-Feb-21 14:02 34.069362 -117.795193 35 27361ft 248kts
21-Feb-21 14:03 34.119840 -117.731158 44 27362ft 276kts
21-Feb-21 14:04 34.172465 -117.659976 44 27403ft 290kts
21-Feb-21 14:05 34.226850 -117.586450 44 27444ft 298kts
21-Feb-21 14:06 34.282476 -117.511145 44 27459ft 303kts
21-Feb-21 14:07 34.338862 -117.434656 44 27458ft 306kts
21-Feb-21 14:08 34.395212 -117.358051 44 27456ft 308kts
21-Feb-21 14:09 34.452343 -117.280225 45 27457ft 308kts
21-Feb-21 14:10 34.509213 -117.202585 45 27457ft 309kts
21-Feb-21 14:11 34.565898 -117.125026 45 27457ft 311kts
21-Feb-21 14:12 34.623420 -117.046174 45 27456ft 312kts
21-Feb-21 14:13 34.680939 -116.967048 44 27455ft 313kts
21-Feb-21 14:14 34.737950 -116.888549 44 27454ft 313kts
21-Feb-21 14:15 34.795470 -116.809136 44 27453ft 313kts
21-Feb-21 14:16 34.852978 -116.729376 45 26782ft 309kts
21-Feb-21 14:17 34.910699 -116.649298 45 25287ft 322kts
21-Feb-21 14:18 34.967574 -116.564821 54 24446ft 314kts
21-Feb-21 14:19 35.008391 -116.474120 57 24457ft 305kts
21-Feb-21 14:20 35.049121 -116.382015 57 24454ft 311kts
21-Feb-21 14:21 35.090084 -116.289426 57 24452ft 314kts
21-Feb-21 14:22 35.131132 -116.196397 57 24460ft 316kts
21-Feb-21 14:23 35.172499 -116.102370 57 24454ft 318kts
21-Feb-21 14:24 35.214449 -116.006763 57 24442ft 319kts
21-Feb-21 14:25 35.256089 -115.911432 56 24290ft 306kts
21-Feb-21 14:26 35.295068 -115.822327 56 21917ft 296kts
21-Feb-21 14:27 35.342323 -115.744690 42 19315ft 277kts
21-Feb-21 14:28 35.393119 -115.676530 41 16663ft 267kts
21-Feb-21 14:29 35.439605 -115.614335 41 14957ft 223kts
21-Feb-21 14:30 35.482047 -115.557518 42 11631ft 229kts
21-Feb-21 14:31 35.524190 -115.501338 45 10026ft 211kts
21-Feb-21 14:32 35.564989 -115.446550 45 10039ft 224kts
21-Feb-21 14:33 35.607802 -115.388939 45 10036ft 230kts
21-Feb-21 14:34 35.651039 -115.330746 46 10069ft 243kts
21-Feb-21 14:35 35.698031 -115.267155 45 10029ft 236kts
21-Feb-21 14:36 35.758399 -115.244028 12 8897ft 234kts
21-Feb-21 14:37 35.821358 -115.228638 12 7350ft 229kts
21-Feb-21 14:38 35.882510 -115.225323 352 6063ft 200kts
21-Feb-21 14:39 35.931060 -115.234092 352 5768ft 173kts
21-Feb-21 14:40 35.974048 -115.227707 27 5039ft 135kts
21-Feb-21 14:41 36.008267 -115.208703 26 3886ft 134kts
21-Feb-21 14:42 36.041663 -115.189532 25 2984ft 136kts
21-Feb-21 14:43 36.076194 -115.169908 25 2220ft 128kts
21-Feb-21 14:44 36.089393 -115.163467 292 2130ft 0kts
21-Feb-21 14:45 36.087963 -115.165539 203 2140ft 16kts
21-Feb-21 14:46 36.083260 -115.168232 205 2159ft 20kts
21-Feb-21 14:47 36.081496 -115.170720 274 2169ft 11kts
21-Feb-21 14:48 36.081116 -115.171306 99 2171ft 0kts
21-Feb-21 14:49 36.081116 -115.171306 99 2171ft 0kts
21-Feb-21 14:50 36.081116 -115.171306 99 2171ft 0kts

Navigation Log

Ident Type
Flight plan parsing failed, navigation log unavailable